Terminal Aerodrome Forecast
Issued by NWS Upton, NY

Home | Current Version | Previous Version | Text Only | Print | Product List | Glossary On
Versions: 1 2 3 4 5 6 7 8 9 10 11 12 13 14 15 16 17 18 19 20 21 22 23 24 25 26 27 28 29 30 31 32 33 34
248
FTUS41 KOKX 280840 AAB
TAFJFK
TAF AMD
KJFK 280840Z 2809/2912 08005KT 6SM -RA OVC035
      TEMPO 2809/2810 -TSRA OVC030CB
     FM281000 08003KT 2SM -RA BR OVC004
      TEMPO 2810/2814 OVC007
     FM281600 09005KT 1 1/2SM BR OVC006
     FM281900 08004KT 3SM -RA BR OVC008
     FM290000 04004KT 3SM -RA BR OVC008
     FM290400 02005KT 5SM BR OVC010
     FM290800 35008KT P6SM BKN020=

USA.gov is the U.S. government's official web portal to all federal, state and local government web resources and services.